Time;durP1;ratioP1;P1;durP2;ratioP2;P2;SDS_P1;SDS_P2;PMS_P1;PMS_P2;Temp;Humidity;BMP_temperature;BMP_pressure;BME280_temperature;BME280_humidity;BME280_pressure;Samples;Min_cycle;Max_cycle;Signal;HPM_P1;HPM_P2
2022/08/03 00:01:04;;;;;;;7.35;1.70;;;25.50;84.60;;;;;;4993659;28;20015;-74
2022/08/03 00:03:30;;;;;;;6.40;1.45;;;25.50;84.70;;;;;;4993873;28;20025;-69
2022/08/03 00:05:55;;;;;;;6.50;1.80;;;25.50;84.70;;;;;;4993687;28;20045;-74
2022/08/03 00:08:21;;;;;;;8.40;1.70;;;25.40;84.70;;;;;;4992897;28;20018;-70
2022/08/03 00:10:47;;;;;;;9.27;1.60;;;25.40;84.80;;;;;;4993485;28;20411;-73
2022/08/03 00:13:12;;;;;;;7.97;1.50;;;25.40;84.70;;;;;;4993318;28;20117;-73
2022/08/03 00:15:40;;;;;;;10.07;1.90;;;25.40;84.90;;;;;;4993947;28;20065;-73
2022/08/03 00:18:06;;;;;;;7.15;1.38;;;25.40;84.90;;;;;;4997617;28;20022;-73
2022/08/03 00:20:32;;;;;;;4.95;1.50;;;25.30;84.80;;;;;;4997364;28;20049;-74
2022/08/03 00:22:57;;;;;;;10.07;1.67;;;25.30;84.90;;;;;;4997721;28;20472;-74
2022/08/03 00:25:23;;;;;;;6.72;1.33;;;25.40;84.80;;;;;;4980003;28;20033;-70
2022/08/03 00:27:48;;;;;;;7.22;1.58;;;25.30;84.70;;;;;;4996926;28;20030;-70
2022/08/03 00:30:14;;;;;;;8.88;1.98;;;25.30;85.00;;;;;;4997146;28;20030;-72
2022/08/03 00:32:40;;;;;;;8.48;1.70;;;25.30;85.00;;;;;;4980026;28;20030;-73
2022/08/03 00:35:06;;;;;;;8.73;1.83;;;25.20;85.10;;;;;;4997300;28;20114;-74
2022/08/03 00:37:32;;;;;;;6.55;1.52;;;25.20;85.20;;;;;;4997344;28;20110;-74
2022/08/03 00:39:57;;;;;;;8.52;1.52;;;25.20;85.10;;;;;;4996577;28;20030;-71
2022/08/03 00:42:23;;;;;;;4.00;1.33;;;25.20;85.10;;;;;;4997017;28;20080;-72
2022/08/03 00:44:48;;;;;;;8.50;1.80;;;25.20;85.20;;;;;;4997128;28;20033;-74
2022/08/03 00:47:14;;;;;;;4.75;1.55;;;25.20;85.20;;;;;;4997541;28;20498;-75
2022/08/03 00:49:41;;;;;;;8.77;2.15;;;25.10;85.20;;;;;;4996808;28;20498;-73
2022/08/03 00:52:12;;;;;;;7.40;1.30;;;25.10;85.20;;;;;;4979663;28;20475;-74
2022/08/03 00:54:39;;;;;;;5.40;1.15;;;25.10;85.80;;;;;;4996956;28;20046;-74
2022/08/03 00:57:05;;;;;;;6.50;1.42;;;25.10;85.10;;;;;;4996699;28;20023;-74
2022/08/03 00:59:31;;;;;;;5.20;1.50;;;25.10;85.20;;;;;;4996389;28;20030;-70
2022/08/03 01:01:57;;;;;;;5.43;1.10;;;25.10;85.20;;;;;;4996956;28;20018;-70
2022/08/03 01:04:22;;;;;;;5.15;1.65;;;25.10;85.30;;;;;;4997108;28;20031;-72
2022/08/03 01:06:56;;;;;;;6.28;1.58;;;25.00;85.20;;;;;;4996817;28;20018;-70
2022/08/03 01:09:30;;;;;;;7.13;1.40;;;25.00;85.20;;;;;;4988206;28;20060;-73
2022/08/03 01:12:02;;;;;;;8.55;1.30;;;25.00;85.20;;;;;;4976539;28;20031;-71
2022/08/03 01:14:37;;;;;;;5.65;1.45;;;24.90;85.40;;;;;;4976459;28;20061;-73
2022/08/03 01:17:30;;;;;;;5.47;1.58;;;25.00;85.20;;;;;;4977138;28;20023;-73
2022/08/03 01:20:23;;;;;;;6.18;1.63;;;25.00;85.30;;;;;;4990504;28;20027;-73
2022/08/03 01:23:20;;;;;;;5.85;1.45;;;25.00;85.40;;;;;;4993349;28;20129;-73
2022/08/03 01:25:54;;;;;;;4.65;1.23;;;24.90;85.30;;;;;;4996068;28;20034;-73
2022/08/03 01:28:47;;;;;;;5.28;1.52;;;24.90;85.30;;;;;;4994921;28;20025;-71
2022/08/03 01:31:17;;;;;;;11.35;1.80;;;24.90;85.30;;;;;;4996172;28;20415;-71
2022/08/03 01:33:49;;;;;;;5.40;1.48;;;24.90;85.40;;;;;;4996242;28;20121;-71
2022/08/03 01:36:20;;;;;;;7.25;1.52;;;24.80;85.30;;;;;;4996010;28;20038;-69
2022/08/03 01:39:00;;;;;;;5.80;1.63;;;24.80;85.30;;;;;;4996094;28;20049;-73
2022/08/03 01:41:33;;;;;;;4.32;1.05;;;24.80;85.40;;;;;;4995972;28;20018;-69
2022/08/03 01:44:01;;;;;;;6.80;1.60;;;24.80;85.40;;;;;;4996248;28;20038;-75
2022/08/03 01:46:29;;;;;;;6.72;1.35;;;24.80;85.50;;;;;;4978088;28;20018;-69
2022/08/03 01:48:56;;;;;;;6.35;1.20;;;24.80;85.60;;;;;;4995829;28;20179;-70
2022/08/03 01:51:22;;;;;;;3.65;1.15;;;24.80;85.70;;;;;;4996007;28;20023;-69
2022/08/03 01:53:50;;;;;;;8.25;1.60;;;24.70;85.60;;;;;;4995833;28;20030;-69
2022/08/03 01:56:18;;;;;;;7.70;1.92;;;24.70;85.70;;;;;;4996050;28;20102;-69
2022/08/03 01:58:47;;;;;;;5.43;1.10;;;24.60;85.90;;;;;;4995335;28;20075;-71
2022/08/03 02:01:14;;;;;;;4.53;1.67;;;24.60;86.00;;;;;;4978377;28;20031;-70
2022/08/03 02:03:42;;;;;;;5.20;1.42;;;24.60;85.90;;;;;;4995970;28;20058;-72
2022/08/03 02:06:10;;;;;;;8.73;1.88;;;24.60;86.00;;;;;;4995834;28;20026;-69
2022/08/03 02:08:38;;;;;;;7.63;2.00;;;24.60;86.00;;;;;;4994863;28;20018;-72
2022/08/03 02:11:05;;;;;;;6.07;1.60;;;24.60;86.00;;;;;;4995659;28;20077;-73
2022/08/03 02:13:33;;;;;;;8.32;1.48;;;24.60;86.70;;;;;;4995306;28;20034;-73
2022/08/03 02:16:02;;;;;;;5.10;1.40;;;24.60;86.10;;;;;;4995278;28;20484;-73
2022/08/03 02:18:29;;;;;;;8.02;1.65;;;24.60;86.30;;;;;;4978035;28;20483;-73
2022/08/03 02:20:55;;;;;;;7.90;1.70;;;24.50;86.20;;;;;;4995419;28;20018;-74
2022/08/03 02:23:21;;;;;;;6.22;1.55;;;24.50;86.30;;;;;;4995279;28;20030;-74
2022/08/03 02:25:55;;;;;;;5.18;1.52;;;24.50;86.30;;;;;;4994860;28;20460;-74
2022/08/03 02:28:24;;;;;;;4.32;1.13;;;24.50;86.40;;;;;;4995355;28;20494;-73
2022/08/03 02:30:53;;;;;;;6.65;1.58;;;24.50;86.40;;;;;;4995475;28;20073;-69
2022/08/03 02:33:30;;;;;;;6.32;1.75;;;24.40;86.40;;;;;;4995222;28;20066;-73
2022/08/03 02:35:58;;;;;;;7.97;1.77;;;24.40;86.60;;;;;;4994776;28;20046;-72
2022/08/03 02:38:29;;;;;;;5.63;1.15;;;24.40;87.20;;;;;;4994532;28;20023;-73
2022/08/03 02:40:57;;;;;;;5.40;1.45;;;24.40;86.50;;;;;;4995164;28;20030;-72
2022/08/03 02:43:24;;;;;;;6.80;1.55;;;24.40;86.70;;;;;;4977620;28;20030;-73
2022/08/03 02:45:51;;;;;;;8.88;1.75;;;24.40;86.80;;;;;;4994351;28;20030;-69
2022/08/03 02:48:22;;;;;;;5.20;1.40;;;24.30;86.80;;;;;;4995047;28;20069;-69
2022/08/03 02:50:50;;;;;;;5.32;1.40;;;24.30;86.90;;;;;;4994970;28;20034;-71
2022/08/03 02:53:17;;;;;;;8.63;1.60;;;24.30;87.10;;;;;;4994585;28;20053;-72
2022/08/03 02:55:45;;;;;;;5.63;1.48;;;24.30;87.20;;;;;;4994463;28;20427;-70
2022/08/03 02:58:12;;;;;;;6.10;1.52;;;24.20;87.20;;;;;;4994402;28;20023;-74
2022/08/03 03:00:39;;;;;;;6.05;1.50;;;24.30;87.30;;;;;;4994749;28;20026;-73
2022/08/03 03:03:05;;;;;;;7.28;1.63;;;24.30;87.20;;;;;;4994730;28;20058;-72
2022/08/03 03:05:31;;;;;;;8.43;1.50;;;24.20;87.30;;;;;;4994573;28;20066;-73
2022/08/03 03:07:57;;;;;;;6.25;1.80;;;24.20;87.50;;;;;;4993865;28;20513;-74
2022/08/03 03:10:24;;;;;;;8.35;1.90;;;24.20;87.50;;;;;;4977276;28;20471;-74
2022/08/03 03:12:54;;;;;;;5.53;1.52;;;24.20;87.60;;;;;;4994262;28;20046;-73
2022/08/03 03:15:20;;;;;;;7.18;1.50;;;24.10;87.50;;;;;;4994493;28;20030;-73
2022/08/03 03:17:48;;;;;;;9.60;1.58;;;24.10;87.60;;;;;;4976683;28;20472;-72
2022/08/03 03:20:14;;;;;;;6.38;1.83;;;24.10;87.80;;;;;;4994239;28;20084;-72
2022/08/03 03:22:40;;;;;;;8.68;1.98;;;24.10;87.90;;;;;;4976534;28;20030;-72
2022/08/03 03:25:07;;;;;;;9.85;1.70;;;24.10;87.90;;;;;;4994356;28;20476;-73
2022/08/03 03:27:34;;;;;;;10.45;1.85;;;24.00;87.90;;;;;;4994014;28;20129;-73
2022/08/03 03:30:00;;;;;;;8.80;1.65;;;24.00;88.10;;;;;;4994113;28;20022;-74
2022/08/03 03:32:27;;;;;;;6.07;1.75;;;24.00;88.20;;;;;;4994547;28;20072;-74
2022/08/03 03:34:54;;;;;;;7.30;1.45;;;24.00;88.40;;;;;;4994050;28;20524;-73
2022/08/03 03:37:20;;;;;;;7.40;1.88;;;24.00;88.40;;;;;;4976201;28;20030;-74
2022/08/03 03:39:46;;;;;;;4.95;1.50;;;24.00;88.40;;;;;;4976229;28;20060;-72
2022/08/03 03:42:12;;;;;;;6.28;1.90;;;24.00;88.50;;;;;;4994087;28;20523;-72
2022/08/03 03:44:38;;;;;;;7.15;1.73;;;24.00;88.60;;;;;;4994069;28;20034;-69
2022/08/03 03:47:03;;;;;;;8.43;1.90;;;23.90;88.60;;;;;;4993871;28;20065;-68
2022/08/03 03:49:30;;;;;;;5.30;1.63;;;23.90;88.60;;;;;;4993914;28;20490;-69
2022/08/03 03:51:56;;;;;;;7.53;1.50;;;23.90;88.60;;;;;;4992882;28;20483;-72
2022/08/03 03:54:22;;;;;;;6.65;1.73;;;23.90;88.60;;;;;;4993697;28;20538;-69
2022/08/03 03:56:47;;;;;;;8.15;1.35;;;23.90;88.70;;;;;;4993760;28;20038;-69
2022/08/03 03:59:13;;;;;;;9.90;1.55;;;23.90;88.70;;;;;;4993443;28;20031;-73
2022/08/03 04:01:39;;;;;;;8.88;2.10;;;23.90;88.80;;;;;;4993734;28;20030;-73
2022/08/03 04:12:23;;;;;;;10.63;1.67;;;23.80;89.10;;;;;;4993294;28;20450;-72
2022/08/03 04:14:52;;;;;;;6.50;1.48;;;23.80;89.20;;;;;;4993464;28;20502;-72
2022/08/03 04:17:18;;;;;;;5.75;1.45;;;23.80;89.20;;;;;;4993700;28;20034;-72
2022/08/03 04:19:51;;;;;;;7.60;1.73;;;23.70;89.20;;;;;;4992868;28;20027;-69
2022/08/03 04:22:20;;;;;;;9.57;2.53;;;23.80;89.30;;;;;;4993711;28;20034;-70
2022/08/03 04:24:49;;;;;;;6.90;1.90;;;23.80;89.30;;;;;;4993490;28;20383;-69
2022/08/03 04:27:23;;;;;;;7.00;1.88;;;23.80;89.40;;;;;;4975844;28;20015;-71
2022/08/03 04:29:51;;;;;;;7.80;2.05;;;23.70;89.30;;;;;;4993395;28;20383;-70
2022/08/03 04:32:19;;;;;;;8.80;1.77;;;23.70;89.40;;;;;;4993860;28;20026;-69
2022/08/03 04:34:45;;;;;;;4.57;1.30;;;23.70;89.40;;;;;;4992987;28;20038;-72
2022/08/03 04:37:17;;;;;;;6.93;1.92;;;23.70;89.50;;;;;;4993258;28;20025;-72
2022/08/03 04:39:43;;;;;;;6.13;1.35;;;23.70;89.60;;;;;;4993158;28;20025;-70
2022/08/03 04:42:11;;;;;;;9.00;1.80;;;23.70;89.70;;;;;;4993301;28;20389;-68
2022/08/03 04:44:41;;;;;;;6.55;1.58;;;23.70;89.70;;;;;;4993176;28;20418;-73
2022/08/03 04:47:07;;;;;;;6.03;1.70;;;23.70;89.80;;;;;;4993182;28;20100;-73
2022/08/03 04:49:36;;;;;;;5.40;1.90;;;23.60;89.80;;;;;;4993274;28;20472;-73
2022/08/03 04:52:02;;;;;;;7.97;1.95;;;23.60;90.00;;;;;;4993406;28;20021;-72
2022/08/03 04:54:28;;;;;;;7.22;1.60;;;23.60;90.00;;;;;;4993319;28;20405;-74
2022/08/03 04:56:53;;;;;;;6.63;1.77;;;23.60;90.00;;;;;;4992759;28;20034;-71
2022/08/03 04:59:19;;;;;;;11.85;1.83;;;23.60;90.00;;;;;;4993167;28;20049;-69
2022/08/03 05:01:44;;;;;;;7.78;2.05;;;23.60;90.00;;;;;;4981247;28;20060;-75
2022/08/03 05:04:10;;;;;;;11.88;1.77;;;23.50;90.00;;;;;;4976654;28;20035;-68
2022/08/03 05:06:35;;;;;;;7.30;1.65;;;23.30;90.20;;;;;;4975303;28;20034;-71
2022/08/03 05:09:02;;;;;;;9.10;2.00;;;23.30;90.50;;;;;;4991951;28;20027;-74
2022/08/03 05:11:28;;;;;;;11.38;2.10;;;23.30;90.60;;;;;;4995720;28;20026;-69
2022/08/03 05:13:54;;;;;;;8.10;1.85;;;23.20;90.60;;;;;;4995785;28;20476;-74
2022/08/03 05:16:19;;;;;;;11.10;1.75;;;23.30;90.70;;;;;;4995788;28;20026;-76
2022/08/03 05:18:45;;;;;;;8.57;2.00;;;23.20;90.70;;;;;;4989487;28;20527;-68
2022/08/03 05:21:15;;;;;;;9.55;1.90;;;23.20;90.80;;;;;;4996261;28;20049;-69
2022/08/03 05:23:41;;;;;;;6.53;1.75;;;23.20;90.80;;;;;;4996396;28;20022;-72
2022/08/03 05:26:07;;;;;;;7.63;1.95;;;23.20;90.90;;;;;;4996511;28;20026;-74
2022/08/03 05:28:33;;;;;;;10.20;1.73;;;23.20;90.90;;;;;;4996161;28;20093;-72
2022/08/03 05:30:58;;;;;;;7.65;2.08;;;23.20;90.90;;;;;;4996282;28;20023;-69
2022/08/03 05:33:24;;;;;;;8.45;1.77;;;23.20;91.00;;;;;;4995937;28;20065;-77
2022/08/03 05:35:49;;;;;;;7.18;1.50;;;23.20;91.00;;;;;;4995902;28;20476;-74
2022/08/03 05:38:15;;;;;;;12.27;2.17;;;23.20;91.30;;;;;;4995761;28;20077;-68
2022/08/03 05:40:41;;;;;;;9.48;2.30;;;23.30;91.10;;;;;;4996281;28;20037;-76
2022/08/03 05:43:06;;;;;;;5.65;1.50;;;23.20;91.20;;;;;;4995474;28;20424;-72
2022/08/03 05:45:32;;;;;;;6.47;1.73;;;23.20;91.20;;;;;;4989161;28;20050;-71
2022/08/03 05:47:58;;;;;;;8.60;1.83;;;23.30;91.30;;;;;;4990621;28;20026;-69
2022/08/03 05:50:23;;;;;;;10.73;2.03;;;23.30;91.30;;;;;;4991465;28;20031;-66
2022/08/03 05:52:49;;;;;;;10.00;2.33;;;23.30;91.30;;;;;;4990865;28;20037;-68
2022/08/03 05:55:15;;;;;;;10.15;2.00;;;23.40;91.40;;;;;;4992215;28;20034;-67
2022/08/03 05:57:41;;;;;;;10.02;1.55;;;23.50;91.20;;;;;;4998583;28;20045;-69
2022/08/03 06:00:10;;;;;;;8.95;2.10;;;23.70;91.30;;;;;;4995327;28;20034;-69
2022/08/03 06:02:35;;;;;;;10.02;2.10;;;23.70;91.40;;;;;;4995412;28;20019;-68
2022/08/03 06:05:01;;;;;;;6.93;1.50;;;23.80;91.40;;;;;;4996012;28;20030;-71
2022/08/03 06:07:27;;;;;;;9.00;1.73;;;23.90;90.80;;;;;;4995432;28;20046;-64
2022/08/03 06:09:53;;;;;;;9.13;1.73;;;24.00;91.10;;;;;;4991500;28;20112;-65
2022/08/03 06:12:19;;;;;;;11.90;1.90;;;24.00;91.20;;;;;;4992303;28;20486;-65
2022/08/03 06:14:44;;;;;;;9.57;1.42;;;24.00;90.80;;;;;;4988485;28;20038;-68
2022/08/03 06:17:10;;;;;;;6.70;1.58;;;24.10;90.50;;;;;;4991759;28;20019;-67
2022/08/03 06:19:36;;;;;;;5.65;1.60;;;24.10;90.50;;;;;;4983754;28;20034;-63
2022/08/03 06:22:02;;;;;;;9.98;1.23;;;24.10;90.40;;;;;;4991998;28;20023;-63
2022/08/03 06:24:27;;;;;;;6.55;1.40;;;24.20;90.30;;;;;;4990766;28;20464;-63
2022/08/03 06:26:53;;;;;;;6.00;1.58;;;24.20;90.30;;;;;;4988357;28;20022;-64
2022/08/03 06:29:19;;;;;;;9.88;2.08;;;24.30;90.20;;;;;;4991890;28;20472;-63
2022/08/03 06:31:44;;;;;;;6.47;1.52;;;24.40;90.10;;;;;;4993301;28;20092;-65
2022/08/03 06:34:10;;;;;;;11.50;1.52;;;24.30;90.20;;;;;;4996595;28;20534;-66
2022/08/03 06:36:35;;;;;;;10.80;2.22;;;24.30;90.30;;;;;;4990649;28;20062;-66
2022/08/03 06:39:02;;;;;;;9.02;2.35;;;24.40;90.20;;;;;;4995458;28;20411;-64
2022/08/03 06:41:28;;;;;;;7.38;1.92;;;24.40;90.10;;;;;;4977252;28;20046;-66
2022/08/03 06:43:54;;;;;;;11.18;2.22;;;24.40;90.10;;;;;;4992448;28;20085;-70
2022/08/03 06:46:19;;;;;;;9.38;1.80;;;24.40;90.10;;;;;;4994291;28;20038;-66
2022/08/03 06:48:45;;;;;;;9.00;1.50;;;24.40;90.10;;;;;;4994199;28;20023;-66
2022/08/03 06:51:11;;;;;;;10.90;1.90;;;24.40;90.10;;;;;;4996826;28;20030;-68
2022/08/03 06:53:37;;;;;;;8.55;1.80;;;24.40;90.10;;;;;;4989982;28;20106;-66
2022/08/03 06:56:06;;;;;;;9.02;1.88;;;24.40;90.10;;;;;;4975863;28;20089;-66
2022/08/03 06:58:32;;;;;;;8.93;2.20;;;24.50;90.10;;;;;;5009604;28;20049;-68
2022/08/03 07:00:57;;;;;;;10.15;1.75;;;24.50;90.10;;;;;;4993220;28;20030;-68
2022/08/03 07:03:23;;;;;;;12.00;2.35;;;24.50;90.00;;;;;;4988868;28;20109;-67
2022/08/03 07:05:50;;;;;;;8.60;1.50;;;24.60;90.00;;;;;;4993864;28;20360;-65
2022/08/03 07:08:16;;;;;;;7.30;1.55;;;24.60;90.00;;;;;;4991117;28;20037;-69
2022/08/03 07:10:42;;;;;;;11.45;2.25;;;24.60;90.00;;;;;;4991621;28;20373;-67
2022/08/03 07:13:08;;;;;;;8.85;1.83;;;24.60;89.60;;;;;;4981569;28;20030;-67
2022/08/03 07:15:34;;;;;;;10.90;2.15;;;24.70;89.50;;;;;;4987169;28;20124;-64
2022/08/03 07:17:59;;;;;;;14.50;2.17;;;24.70;89.60;;;;;;4993437;28;20034;-63
2022/08/03 07:20:25;;;;;;;12.68;2.22;;;24.70;89.70;;;;;;4991787;28;20034;-68
2022/08/03 07:22:51;;;;;;;7.38;1.70;;;24.70;89.50;;;;;;5001381;28;20025;-68
2022/08/03 07:25:16;;;;;;;8.43;1.63;;;24.80;89.90;;;;;;4999836;28;20030;-70
2022/08/03 07:27:43;;;;;;;10.70;1.80;;;24.80;89.20;;;;;;4973208;28;20117;-67
2022/08/03 07:30:09;;;;;;;9.20;1.92;;;24.90;89.00;;;;;;4969612;28;20384;-66
2022/08/03 07:32:35;;;;;;;12.77;1.90;;;24.90;88.90;;;;;;4988403;28;20018;-69
2022/08/03 07:35:01;;;;;;;7.93;1.92;;;24.90;88.70;;;;;;4986732;28;20124;-66
2022/08/03 07:37:27;;;;;;;14.23;2.35;;;25.00;88.40;;;;;;4988691;28;20494;-68
2022/08/03 07:39:52;;;;;;;7.47;1.67;;;25.00;88.20;;;;;;4996022;28;20026;-66
2022/08/03 07:42:19;;;;;;;12.40;2.30;;;25.00;88.10;;;;;;4995151;28;20026;-69
2022/08/03 07:44:44;;;;;;;12.68;2.28;;;25.10;87.90;;;;;;4988792;28;20106;-69
2022/08/03 07:47:10;;;;;;;12.05;1.88;;;25.10;87.80;;;;;;4994049;28;20018;-67
2022/08/03 07:49:40;;;;;;;8.80;1.92;;;25.10;87.50;;;;;;4995446;28;20531;-65
2022/08/03 07:54:49;;;;;;;17.83;2.05;;;25.20;87.40;;;;;;4993588;28;20041;-68
2022/08/03 07:57:15;;;;;;;13.23;2.53;;;25.20;87.40;;;;;;4988006;28;20109;-66
2022/08/03 07:59:41;;;;;;;7.65;1.70;;;25.30;87.30;;;;;;4994227;28;20030;-67
2022/08/03 08:02:07;;;;;;;11.20;2.15;;;25.30;87.10;;;;;;4991291;28;20460;-68
2022/08/03 08:04:32;;;;;;;10.50;1.63;;;25.30;86.80;;;;;;4972792;28;20120;-67
2022/08/03 08:06:58;;;;;;;12.43;2.45;;;25.40;86.70;;;;;;4983556;28;20414;-69
2022/08/03 08:09:24;;;;;;;8.98;1.92;;;25.50;86.50;;;;;;4984799;28;20034;-68
2022/08/03 08:11:49;;;;;;;9.10;2.20;;;25.50;86.40;;;;;;4986699;28;20026;-65
2022/08/03 08:14:15;;;;;;;13.30;2.70;;;25.50;86.00;;;;;;4986096;28;20393;-67
2022/08/03 08:16:41;;;;;;;10.18;1.63;;;25.50;85.90;;;;;;4985292;28;20403;-69
2022/08/03 08:19:06;;;;;;;10.30;2.17;;;25.60;85.90;;;;;;4991946;28;20508;-67
2022/08/03 08:21:32;;;;;;;9.02;2.10;;;25.60;85.90;;;;;;4986832;28;20647;-68
2022/08/03 08:23:57;;;;;;;14.45;3.28;;;25.70;85.70;;;;;;4988642;28;20037;-67
2022/08/03 08:26:23;;;;;;;12.25;2.15;;;25.70;85.30;;;;;;4972034;28;20125;-71
2022/08/03 08:28:49;;;;;;;11.07;2.30;;;25.60;85.20;;;;;;4994661;28;20061;-68
2022/08/03 08:31:14;;;;;;;16.92;2.60;;;25.60;85.30;;;;;;4985702;28;20018;-67
2022/08/03 08:33:40;;;;;;;12.93;2.33;;;25.70;85.30;;;;;;4992666;28;20025;-67
2022/08/03 08:36:06;;;;;;;13.23;2.60;;;25.70;85.30;;;;;;4984750;28;20117;-66
2022/08/03 08:38:34;;;;;;;15.30;3.35;;;25.70;85.00;;;;;;4995440;28;20054;-67
2022/08/03 08:40:59;;;;;;;13.45;2.65;;;25.80;84.80;;;;;;4995280;28;20096;-68
2022/08/03 08:43:26;;;;;;;8.27;2.10;;;25.80;84.70;;;;;;4989718;28;20117;-66
2022/08/03 08:45:53;;;;;;;9.18;2.47;;;25.90;84.60;;;;;;4991830;28;20031;-66
2022/08/03 08:48:23;;;;;;;19.60;2.60;;;25.90;84.40;;;;;;4982038;28;20034;-69
2022/08/03 08:50:53;;;;;;;11.52;2.45;;;25.90;84.30;;;;;;4989341;28;20533;-66
2022/08/03 08:53:20;;;;;;;16.00;3.28;;;25.90;84.30;;;;;;4994683;28;20121;-66
2022/08/03 08:55:46;;;;;;;13.38;2.15;;;25.80;84.30;;;;;;4993251;28;20549;-66
2022/08/03 08:58:15;;;;;;;17.33;2.65;;;25.90;84.00;;;;;;4976998;28;20479;-66
2022/08/03 09:00:43;;;;;;;10.90;2.58;;;26.00;83.90;;;;;;4993218;28;20041;-66
2022/08/03 09:03:10;;;;;;;14.90;2.30;;;26.00;84.00;;;;;;5005280;28;20447;-70
2022/08/03 09:05:37;;;;;;;13.65;2.70;;;25.90;84.10;;;;;;5004446;28;20034;-71
2022/08/03 09:08:04;;;;;;;15.23;2.83;;;26.00;83.90;;;;;;4998052;28;20019;-65
2022/08/03 09:10:30;;;;;;;8.98;2.17;;;26.10;83.60;;;;;;4992275;28;20100;-68
2022/08/03 09:12:55;;;;;;;15.65;2.67;;;26.00;83.60;;;;;;4988736;28;20483;-70
2022/08/03 09:15:22;;;;;;;9.77;2.30;;;26.10;83.60;;;;;;4991968;28;20045;-68
2022/08/03 09:17:49;;;;;;;9.13;1.88;;;26.00;83.10;;;;;;4992689;28;20023;-69
2022/08/03 09:20:15;;;;;;;11.90;2.13;;;26.20;82.80;;;;;;4994160;28;20480;-70
2022/08/03 09:23:00;;;;;;;13.35;2.63;;;26.20;82.00;;;;;;4999123;28;20041;-67
2022/08/03 09:25:35;;;;;;;9.10;2.13;;;26.20;82.00;;;;;;4989620;28;20060;-68
2022/08/03 09:28:07;;;;;;;14.32;2.50;;;26.20;81.60;;;;;;4993306;28;20057;-66
2022/08/03 09:30:33;;;;;;;12.82;1.95;;;26.10;81.80;;;;;;4992011;28;20428;-66
2022/08/03 09:33:07;;;;;;;10.15;2.20;;;26.10;81.80;;;;;;4988210;28;20026;-67
2022/08/03 09:35:40;;;;;;;10.60;2.30;;;26.20;81.80;;;;;;4995320;28;20034;-67
2022/08/03 09:38:12;;;;;;;10.55;2.80;;;26.20;81.70;;;;;;4998781;28;20173;-69
2022/08/03 09:40:38;;;;;;;;;;;26.20;81.60;;;;;;4988072;28;20034;-66
2022/08/03 09:43:06;;;;;;;13.57;2.03;;;26.20;81.50;;;;;;4988592;28;19937;-70
2022/08/03 09:45:33;;;;;;;10.40;2.05;;;26.20;81.90;;;;;;4988242;28;20030;-67
2022/08/03 09:48:28;;;;;;;11.52;1.60;;;26.30;81.80;;;;;;4992703;28;20042;-72
2022/08/03 09:50:59;;;;;;;11.55;2.38;;;26.30;81.90;;;;;;5008402;28;20037;-72
2022/08/03 09:53:26;;;;;;;10.07;2.03;;;26.30;81.90;;;;;;5002565;28;20060;-70
2022/08/03 09:55:52;;;;;;;7.22;1.95;;;26.40;82.00;;;;;;4988788;28;20487;-72
2022/08/03 09:58:20;;;;;;;7.00;1.70;;;26.50;82.30;;;;;;4987796;28;20034;-68
2022/08/03 10:00:53;;;;;;;12.15;2.03;;;26.40;82.40;;;;;;4991021;28;20033;-69
2022/08/03 10:03:19;;;;;;;12.10;2.00;;;26.40;82.70;;;;;;4986645;28;20027;-68
2022/08/03 10:05:44;;;;;;;8.63;2.45;;;26.40;83.00;;;;;;4991320;28;20027;-72
2022/08/03 10:08:18;;;;;;;10.68;1.90;;;26.40;83.80;;;;;;4995019;28;20038;-70
2022/08/03 10:10:45;;;;;;;10.60;2.13;;;26.50;84.20;;;;;;4991539;28;20479;-66
2022/08/03 10:13:12;;;;;;;14.40;1.77;;;26.50;86.00;;;;;;4968093;28;20402;-69
2022/08/03 10:15:39;;;;;;;11.82;1.80;;;26.50;86.00;;;;;;4990412;28;20108;-67
2022/08/03 10:18:05;;;;;;;12.70;2.10;;;26.40;86.10;;;;;;4986981;28;20533;-69
2022/08/03 10:20:35;;;;;;;7.63;1.52;;;26.50;86.80;;;;;;4990558;28;20042;-70
2022/08/03 10:23:02;;;;;;;16.85;2.13;;;26.50;87.90;;;;;;5007837;28;20026;-74
2022/08/03 10:25:30;;;;;;;9.77;1.45;;;26.60;87.50;;;;;;4989795;28;20434;-71
2022/08/03 10:27:56;;;;;;;9.70;1.95;;;26.60;87.80;;;;;;4984739;28;20030;-67
2022/08/03 10:30:23;;;;;;;7.07;2.10;;;26.60;87.20;;;;;;4980857;28;20038;-68
2022/08/03 10:32:59;;;;;;;9.60;2.10;;;26.60;87.40;;;;;;4992839;28;20548;-67
2022/08/03 10:35:25;;;;;;;9.32;1.77;;;26.70;86.20;;;;;;4983518;28;20031;-68
2022/08/03 10:38:09;;;;;;;9.55;1.80;;;26.70;86.20;;;;;;4970043;28;20041;-67
2022/08/03 10:40:36;;;;;;;7.43;1.80;;;26.70;86.50;;;;;;4989483;28;20073;-66
2022/08/03 10:43:18;;;;;;;6.90;1.90;;;26.70;86.90;;;;;;4997312;28;20112;-69
2022/08/03 10:45:45;;;;;;;13.75;2.40;;;26.70;87.60;;;;;;5000644;28;20497;-70
2022/08/03 10:48:12;;;;;;;21.40;5.60;;;26.70;87.70;;;;;;4991261;28;20121;-70
2022/08/03 10:50:39;;;;;;;22.67;5.13;;;26.70;89.10;;;;;;4990293;28;20022;-70
2022/08/03 10:53:06;;;;;;;22.15;5.18;;;26.70;88.50;;;;;;4993957;28;20206;-71
2022/08/03 10:58:45;;;;;;;16.23;4.20;;;26.80;86.80;;;;;;4989094;28;20042;-68
2022/08/03 11:01:11;;;;;;;13.18;3.97;;;26.80;86.40;;;;;;4988034;28;20098;-71
2022/08/03 11:03:52;;;;;;;15.02;3.75;;;26.90;85.80;;;;;;4992485;28;20114;-69
2022/08/03 11:06:20;;;;;;;16.00;4.22;;;26.80;85.90;;;;;;4981922;28;20034;-69
2022/08/03 11:08:47;;;;;;;14.00;3.53;;;26.80;86.10;;;;;;4988590;28;20100;-69
2022/08/03 11:11:16;;;;;;;10.82;3.42;;;26.80;86.10;;;;;;4993016;28;20037;-68
2022/08/03 11:14:04;;;;;;;10.65;3.10;;;26.80;86.20;;;;;;4986040;28;20178;-66
2022/08/03 11:16:35;;;;;;;15.25;3.38;;;26.80;86.60;;;;;;4982007;28;20077;-65
2022/08/03 11:19:10;;;;;;;11.85;3.50;;;26.80;86.70;;;;;;4966633;28;20194;-69
2022/08/03 11:21:51;;;;;;;11.15;3.08;;;26.70;86.80;;;;;;4995558;28;20395;-68
2022/08/03 11:24:35;;;;;;;15.32;3.05;;;26.70;87.00;;;;;;5004214;28;20022;-69
2022/08/03 11:27:23;;;;;;;10.63;2.97;;;26.70;87.40;;;;;;4996938;28;20065;-69
2022/08/03 11:30:02;;;;;;;12.50;3.55;;;26.70;87.20;;;;;;4989849;28;20035;-69
2022/08/03 11:32:37;;;;;;;14.93;3.03;;;26.70;87.20;;;;;;4974950;28;20514;-65
2022/08/03 11:35:07;;;;;;;8.55;2.67;;;26.70;87.00;;;;;;4985501;28;20046;-70
2022/08/03 11:37:33;;;;;;;16.60;3.25;;;26.70;86.70;;;;;;4993392;28;20025;-66
2022/08/03 11:39:58;;;;;;;12.85;3.05;;;26.70;86.80;;;;;;4983686;28;20191;-70
2022/08/03 11:42:37;;;;;;;12.05;2.92;;;26.70;86.80;;;;;;4974713;28;20026;-65
2022/08/03 11:45:07;;;;;;;6.70;2.83;;;26.80;86.30;;;;;;4979278;28;20027;-66
2022/08/03 11:47:37;;;;;;;10.57;2.42;;;26.80;86.20;;;;;;5002576;28;20053;-72
2022/08/03 11:50:03;;;;;;;11.10;2.70;;;26.80;86.20;;;;;;4992588;28;20038;-72
2022/08/03 11:52:37;;;;;;;8.45;2.70;;;26.70;86.10;;;;;;4992383;28;20105;-66
2022/08/03 11:55:09;;;;;;;8.30;2.63;;;26.70;86.10;;;;;;4992897;28;20368;-65
2022/08/03 11:57:35;;;;;;;11.32;2.70;;;26.80;86.00;;;;;;4997189;28;20054;-70
2022/08/03 12:00:01;;;;;;;8.88;2.63;;;26.70;86.10;;;;;;5000515;28;20388;-66
2022/08/03 12:02:26;;;;;;;11.82;2.70;;;26.70;86.10;;;;;;4991579;28;20026;-65
2022/08/03 12:04:53;;;;;;;7.45;2.03;;;26.80;86.00;;;;;;4988426;28;20023;-69
2022/08/03 12:07:19;;;;;;;9.50;2.20;;;26.70;85.90;;;;;;4988623;28;20023;-65
2022/08/03 12:10:10;;;;;;;7.30;2.15;;;26.70;86.00;;;;;;4994141;28;20076;-65
2022/08/03 12:12:37;;;;;;;6.78;2.20;;;26.80;85.90;;;;;;4991229;28;20023;-65
2022/08/03 12:15:04;;;;;;;8.20;1.73;;;26.80;85.60;;;;;;4973173;28;20054;-69
2022/08/03 12:17:34;;;;;;;7.93;2.28;;;26.80;85.50;;;;;;4992071;28;20018;-65
2022/08/03 12:20:00;;;;;;;9.00;2.20;;;26.80;85.60;;;;;;4991270;28;20058;-65
2022/08/03 12:22:37;;;;;;;8.25;1.85;;;26.80;85.60;;;;;;4992819;28;20054;-72
2022/08/03 12:25:07;;;;;;;6.43;2.13;;;26.80;85.10;;;;;;4974313;28;20100;-69
2022/08/03 12:27:34;;;;;;;12.55;2.10;;;26.80;84.60;;;;;;4992229;28;20468;-71
2022/08/03 12:30:00;;;;;;;8.52;2.47;;;26.80;84.60;;;;;;4967709;28;20027;-68
2022/08/03 12:32:28;;;;;;;7.22;1.88;;;26.90;84.50;;;;;;4970423;28;20502;-74
2022/08/03 12:34:58;;;;;;;8.20;1.60;;;26.90;84.30;;;;;;4988599;28;20034;-72
2022/08/03 12:37:24;;;;;;;6.85;1.52;;;26.90;84.10;;;;;;4984988;28;20111;-66
2022/08/03 12:39:54;;;;;;;7.70;1.80;;;26.90;83.90;;;;;;4989731;28;20121;-74
2022/08/03 12:42:20;;;;;;;7.95;1.70;;;26.90;84.00;;;;;;4994060;28;20041;-67
2022/08/03 12:44:47;;;;;;;7.65;1.60;;;27.00;83.90;;;;;;4999436;28;20034;-69
2022/08/03 12:47:14;;;;;;;8.20;1.70;;;26.90;83.90;;;;;;4992699;28;20027;-66
2022/08/03 12:49:47;;;;;;;5.28;1.60;;;26.90;83.70;;;;;;4993173;28;20057;-66
2022/08/03 12:52:14;;;;;;;5.55;1.45;;;27.00;83.70;;;;;;4991230;28;20026;-73
2022/08/03 12:54:40;;;;;;;5.93;1.63;;;27.00;83.70;;;;;;4992265;28;20034;-69
2022/08/03 12:57:09;;;;;;;5.63;1.70;;;26.90;83.50;;;;;;4990595;28;20037;-70
2022/08/03 12:59:42;;;;;;;24.13;3.42;;;27.00;84.30;;;;;;4995478;28;20049;-70
2022/08/03 13:02:17;;;;;;;7.85;1.90;;;27.00;83.90;;;;;;5001431;28;20026;-68